sensor_id;sensor_type;location;lat;lon;timestamp;pressure;altitude;pressure_sealevel;temperature
12061;BMP180;6091;51.432;6.880;2023-01-20T00:01:39;100255.00;;;21.40
12061;BMP180;6091;51.432;6.880;2023-01-20T00:04:08;100265.00;;;21.40
12061;BMP180;6091;51.432;6.880;2023-01-20T00:06:35;100256.00;;;21.40
12061;BMP180;6091;51.432;6.880;2023-01-20T00:09:18;100265.00;;;21.40
12061;BMP180;6091;51.432;6.880;2023-01-20T00:11:45;100273.00;;;21.40
12061;BMP180;6091;51.432;6.880;2023-01-20T00:14:13;100272.00;;;21.40
12061;BMP180;6091;51.432;6.880;2023-01-20T00:16:40;100269.00;;;21.40
12061;BMP180;6091;51.432;6.880;2023-01-20T00:19:07;100282.00;;;21.40
12061;BMP180;6091;51.432;6.880;2023-01-20T00:21:35;100279.00;;;21.40
12061;BMP180;6091;51.432;6.880;2023-01-20T00:24:01;100280.00;;;21.30
12061;BMP180;6091;51.432;6.880;2023-01-20T00:26:28;100273.00;;;21.30
12061;BMP180;6091;51.432;6.880;2023-01-20T00:28:56;100285.00;;;21.30
12061;BMP180;6091;51.432;6.880;2023-01-20T00:31:29;100291.00;;;21.30
12061;BMP180;6091;51.432;6.880;2023-01-20T00:34:00;100288.00;;;21.30
12061;BMP180;6091;51.432;6.880;2023-01-20T00:36:30;100292.00;;;21.30
12061;BMP180;6091;51.432;6.880;2023-01-20T00:38:57;100293.00;;;21.30
12061;BMP180;6091;51.432;6.880;2023-01-20T00:41:24;100295.00;;;21.30
12061;BMP180;6091;51.432;6.880;2023-01-20T00:43:51;100300.00;;;21.30
12061;BMP180;6091;51.432;6.880;2023-01-20T00:46:18;100304.00;;;21.30
12061;BMP180;6091;51.432;6.880;2023-01-20T00:48:45;100308.00;;;21.30
12061;BMP180;6091;51.432;6.880;2023-01-20T00:51:12;100312.00;;;21.30
12061;BMP180;6091;51.432;6.880;2023-01-20T00:53:39;100309.00;;;21.30
12061;BMP180;6091;51.432;6.880;2023-01-20T00:56:06;100305.00;;;21.30
12061;BMP180;6091;51.432;6.880;2023-01-20T00:58:34;100300.00;;;21.30
12061;BMP180;6091;51.432;6.880;2023-01-20T01:01:01;100312.00;;;21.20
12061;BMP180;6091;51.432;6.880;2023-01-20T01:03:28;100305.00;;;21.20
12061;BMP180;6091;51.432;6.880;2023-01-20T01:06:11;100307.00;;;21.20
12061;BMP180;6091;51.432;6.880;2023-01-20T01:08:38;100306.00;;;21.20
12061;BMP180;6091;51.432;6.880;2023-01-20T01:11:06;100309.00;;;21.20
12061;BMP180;6091;51.432;6.880;2023-01-20T01:13:33;100317.00;;;21.20
12061;BMP180;6091;51.432;6.880;2023-01-20T01:16:00;100313.00;;;21.20
12061;BMP180;6091;51.432;6.880;2023-01-20T01:18:27;100324.00;;;21.20
12061;BMP180;6091;51.432;6.880;2023-01-20T01:20:54;100326.00;;;21.20
12061;BMP180;6091;51.432;6.880;2023-01-20T01:23:22;100320.00;;;21.20
12061;BMP180;6091;51.432;6.880;2023-01-20T01:25:49;100319.00;;;21.20
12061;BMP180;6091;51.432;6.880;2023-01-20T01:28:16;100319.00;;;21.20
12061;BMP180;6091;51.432;6.880;2023-01-20T01:30:43;100330.00;;;21.20
12061;BMP180;6091;51.432;6.880;2023-01-20T01:33:10;100330.00;;;21.20
12061;BMP180;6091;51.432;6.880;2023-01-20T01:35:37;100318.00;;;21.20
12061;BMP180;6091;51.432;6.880;2023-01-20T01:38:04;100319.00;;;21.20
12061;BMP180;6091;51.432;6.880;2023-01-20T01:40:31;100326.00;;;21.10
12061;BMP180;6091;51.432;6.880;2023-01-20T01:43:00;100335.00;;;21.10
12061;BMP180;6091;51.432;6.880;2023-01-20T01:45:30;100336.00;;;21.10
12061;BMP180;6091;51.432;6.880;2023-01-20T01:48:07;100346.00;;;21.10
12061;BMP180;6091;51.432;6.880;2023-01-20T01:50:53;100350.00;;;21.10
12061;BMP180;6091;51.432;6.880;2023-01-20T01:53:22;100345.00;;;21.10
12061;BMP180;6091;51.432;6.880;2023-01-20T01:55:56;100340.00;;;21.10
12061;BMP180;6091;51.432;6.880;2023-01-20T01:58:32;100351.00;;;21.10
12061;BMP180;6091;51.432;6.880;2023-01-20T02:01:01;100354.00;;;21.10
12061;BMP180;6091;51.432;6.880;2023-01-20T02:03:39;100345.00;;;21.10
12061;BMP180;6091;51.432;6.880;2023-01-20T02:06:10;100356.00;;;21.10
12061;BMP180;6091;51.432;6.880;2023-01-20T02:08:38;100353.00;;;21.10
12061;BMP180;6091;51.432;6.880;2023-01-20T02:11:06;100354.00;;;21.10
12061;BMP180;6091;51.432;6.880;2023-01-20T02:13:33;100351.00;;;21.00
12061;BMP180;6091;51.432;6.880;2023-01-20T02:18:59;100364.00;;;21.00
12061;BMP180;6091;51.432;6.880;2023-01-20T02:22:06;100367.00;;;21.00
12061;BMP180;6091;51.432;6.880;2023-01-20T02:37:17;100366.00;;;20.90
12061;BMP180;6091;51.432;6.880;2023-01-20T02:40:22;100365.00;;;20.90
12061;BMP180;6091;51.432;6.880;2023-01-20T02:43:19;100375.00;;;20.90
12061;BMP180;6091;51.432;6.880;2023-01-20T02:46:24;100381.00;;;20.90
12061;BMP180;6091;51.432;6.880;2023-01-20T02:49:16;100371.00;;;20.90
12061;BMP180;6091;51.432;6.880;2023-01-20T02:51:57;100376.00;;;20.90
12061;BMP180;6091;51.432;6.880;2023-01-20T02:54:30;100380.00;;;20.90
12061;BMP180;6091;51.432;6.880;2023-01-20T02:57:01;100385.00;;;20.90
12061;BMP180;6091;51.432;6.880;2023-01-20T02:59:36;100370.00;;;20.90
12061;BMP180;6091;51.432;6.880;2023-01-20T03:02:14;100377.00;;;20.90
12061;BMP180;6091;51.432;6.880;2023-01-20T03:05:06;100376.00;;;20.90
12061;BMP180;6091;51.432;6.880;2023-01-20T03:07:39;100385.00;;;20.80
12061;BMP180;6091;51.432;6.880;2023-01-20T03:10:12;100384.00;;;20.90
12061;BMP180;6091;51.432;6.880;2023-01-20T03:13:18;100388.00;;;20.80
12061;BMP180;6091;51.432;6.880;2023-01-20T03:16:01;100383.00;;;20.80
12061;BMP180;6091;51.432;6.880;2023-01-20T03:18:31;100384.00;;;20.80
12061;BMP180;6091;51.432;6.880;2023-01-20T03:20:59;100386.00;;;20.80
12061;BMP180;6091;51.432;6.880;2023-01-20T03:23:31;100384.00;;;20.80
12061;BMP180;6091;51.432;6.880;2023-01-20T03:26:04;100383.00;;;20.80
12061;BMP180;6091;51.432;6.880;2023-01-20T03:28:32;100389.00;;;20.80
12061;BMP180;6091;51.432;6.880;2023-01-20T03:31:09;100381.00;;;20.80
12061;BMP180;6091;51.432;6.880;2023-01-20T03:33:38;100397.00;;;20.80
12061;BMP180;6091;51.432;6.880;2023-01-20T03:36:06;100398.00;;;20.80
12061;BMP180;6091;51.432;6.880;2023-01-20T03:38:33;100398.00;;;20.80
12061;BMP180;6091;51.432;6.880;2023-01-20T03:52:32;100413.00;;;20.80
12061;BMP180;6091;51.432;6.880;2023-01-20T03:55:30;100423.00;;;20.70
12061;BMP180;6091;51.432;6.880;2023-01-20T03:58:11;100417.00;;;20.70
12061;BMP180;6091;51.432;6.880;2023-01-20T04:00:43;100419.00;;;20.70
12061;BMP180;6091;51.432;6.880;2023-01-20T04:03:27;100423.00;;;20.70
12061;BMP180;6091;51.432;6.880;2023-01-20T04:05:57;100428.00;;;20.70
12061;BMP180;6091;51.432;6.880;2023-01-20T04:08:33;100426.00;;;20.70
12061;BMP180;6091;51.432;6.880;2023-01-20T04:11:05;100423.00;;;20.70
12061;BMP180;6091;51.432;6.880;2023-01-20T04:13:33;100424.00;;;20.70
12061;BMP180;6091;51.432;6.880;2023-01-20T04:16:02;100429.00;;;20.70
12061;BMP180;6091;51.432;6.880;2023-01-20T04:18:41;100428.00;;;20.70
12061;BMP180;6091;51.432;6.880;2023-01-20T04:21:18;100437.00;;;20.70
12061;BMP180;6091;51.432;6.880;2023-01-20T04:24:21;100432.00;;;20.70
12061;BMP180;6091;51.432;6.880;2023-01-20T04:26:50;100427.00;;;20.70
12061;BMP180;6091;51.432;6.880;2023-01-20T04:29:17;100436.00;;;20.70
12061;BMP180;6091;51.432;6.880;2023-01-20T04:31:44;100429.00;;;20.70
12061;BMP180;6091;51.432;6.880;2023-01-20T04:34:14;100424.00;;;20.70
12061;BMP180;6091;51.432;6.880;2023-01-20T04:36:42;100429.00;;;20.70
12061;BMP180;6091;51.432;6.880;2023-01-20T04:39:09;100432.00;;;20.70
12061;BMP180;6091;51.432;6.880;2023-01-20T04:41:36;100432.00;;;20.70
12061;BMP180;6091;51.432;6.880;2023-01-20T04:44:02;100438.00;;;20.70
12061;BMP180;6091;51.432;6.880;2023-01-20T04:46:29;100442.00;;;20.70
12061;BMP180;6091;51.432;6.880;2023-01-20T04:48:56;100446.00;;;20.70
12061;BMP180;6091;51.432;6.880;2023-01-20T04:51:23;100442.00;;;20.70
12061;BMP180;6091;51.432;6.880;2023-01-20T04:53:55;100441.00;;;20.70
12061;BMP180;6091;51.432;6.880;2023-01-20T04:56:23;100450.00;;;20.70
12061;BMP180;6091;51.432;6.880;2023-01-20T04:58:50;100437.00;;;20.70
12061;BMP180;6091;51.432;6.880;2023-01-20T05:01:17;100442.00;;;20.70
12061;BMP180;6091;51.432;6.880;2023-01-20T05:03:44;100447.00;;;20.70
12061;BMP180;6091;51.432;6.880;2023-01-20T05:06:12;100457.00;;;20.70
12061;BMP180;6091;51.432;6.880;2023-01-20T05:08:39;100456.00;;;20.70
12061;BMP180;6091;51.432;6.880;2023-01-20T05:11:07;100467.00;;;20.60
12061;BMP180;6091;51.432;6.880;2023-01-20T05:13:34;100468.00;;;20.60
12061;BMP180;6091;51.432;6.880;2023-01-20T05:16:09;100468.00;;;20.70
12061;BMP180;6091;51.432;6.880;2023-01-20T05:18:37;100460.00;;;20.60
12061;BMP180;6091;51.432;6.880;2023-01-20T05:21:05;100468.00;;;20.60
12061;BMP180;6091;51.432;6.880;2023-01-20T05:23:34;100454.00;;;20.60
12061;BMP180;6091;51.432;6.880;2023-01-20T05:26:01;100475.00;;;20.60
12061;BMP180;6091;51.432;6.880;2023-01-20T05:28:28;100475.00;;;20.60
12061;BMP180;6091;51.432;6.880;2023-01-20T05:30:55;100470.00;;;20.60
12061;BMP180;6091;51.432;6.880;2023-01-20T05:33:23;100472.00;;;20.60
12061;BMP180;6091;51.432;6.880;2023-01-20T05:35:50;100476.00;;;20.60
12061;BMP180;6091;51.432;6.880;2023-01-20T05:38:17;100477.00;;;20.60
12061;BMP180;6091;51.432;6.880;2023-01-20T05:40:43;100475.00;;;20.60
12061;BMP180;6091;51.432;6.880;2023-01-20T05:43:10;100475.00;;;20.60
12061;BMP180;6091;51.432;6.880;2023-01-20T05:45:38;100483.00;;;20.60
12061;BMP180;6091;51.432;6.880;2023-01-20T05:48:05;100482.00;;;20.60
12061;BMP180;6091;51.432;6.880;2023-01-20T05:50:32;100483.00;;;20.60
12061;BMP180;6091;51.432;6.880;2023-01-20T05:52:59;100484.00;;;20.60
12061;BMP180;6091;51.432;6.880;2023-01-20T05:55:26;100486.00;;;20.60
12061;BMP180;6091;51.432;6.880;2023-01-20T05:57:53;100493.00;;;20.60
12061;BMP180;6091;51.432;6.880;2023-01-20T06:00:21;100496.00;;;20.60
12061;BMP180;6091;51.432;6.880;2023-01-20T06:02:48;100498.00;;;20.60
12061;BMP180;6091;51.432;6.880;2023-01-20T06:05:15;100506.00;;;20.60
12061;BMP180;6091;51.432;6.880;2023-01-20T06:07:42;100499.00;;;20.60
12061;BMP180;6091;51.432;6.880;2023-01-20T06:10:10;100501.00;;;20.60
12061;BMP180;6091;51.432;6.880;2023-01-20T06:12:37;100505.00;;;20.60
12061;BMP180;6091;51.432;6.880;2023-01-20T06:15:05;100508.00;;;20.60
12061;BMP180;6091;51.432;6.880;2023-01-20T06:17:32;100509.00;;;20.60
12061;BMP180;6091;51.432;6.880;2023-01-20T06:20:00;100505.00;;;20.60
12061;BMP180;6091;51.432;6.880;2023-01-20T06:22:27;100519.00;;;20.50
12061;BMP180;6091;51.432;6.880;2023-01-20T06:24:54;100520.00;;;20.50
12061;BMP180;6091;51.432;6.880;2023-01-20T06:27:21;100522.00;;;20.50
12061;BMP180;6091;51.432;6.880;2023-01-20T06:29:48;100521.00;;;20.50
12061;BMP180;6091;51.432;6.880;2023-01-20T06:32:16;100523.00;;;20.50
12061;BMP180;6091;51.432;6.880;2023-01-20T06:34:43;100528.00;;;20.50
12061;BMP180;6091;51.432;6.880;2023-01-20T06:37:12;100522.00;;;20.60
12061;BMP180;6091;51.432;6.880;2023-01-20T06:39:39;100520.00;;;20.60
12061;BMP180;6091;51.432;6.880;2023-01-20T06:42:06;100523.00;;;20.70
12061;BMP180;6091;51.432;6.880;2023-01-20T06:44:33;100522.00;;;20.80
12061;BMP180;6091;51.432;6.880;2023-01-20T06:47:00;100531.00;;;21.00
12061;BMP180;6091;51.432;6.880;2023-01-20T06:49:27;100522.00;;;21.10
12061;BMP180;6091;51.432;6.880;2023-01-20T06:51:54;100530.00;;;21.30
12061;BMP180;6091;51.432;6.880;2023-01-20T06:54:21;100535.00;;;21.50
12061;BMP180;6091;51.432;6.880;2023-01-20T06:56:48;100532.00;;;21.60
12061;BMP180;6091;51.432;6.880;2023-01-20T06:59:15;100543.00;;;21.80
12061;BMP180;6091;51.432;6.880;2023-01-20T07:01:42;100549.00;;;21.90
12061;BMP180;6091;51.432;6.880;2023-01-20T07:04:12;100555.00;;;22.10
12061;BMP180;6091;51.432;6.880;2023-01-20T07:06:40;100555.00;;;22.20
12061;BMP180;6091;51.432;6.880;2023-01-20T07:09:11;100562.00;;;22.40
12061;BMP180;6091;51.432;6.880;2023-01-20T07:11:39;100555.00;;;22.50
12061;BMP180;6091;51.432;6.880;2023-01-20T07:14:06;100554.00;;;22.60
12061;BMP180;6091;51.432;6.880;2023-01-20T07:16:34;100554.00;;;22.80
12061;BMP180;6091;51.432;6.880;2023-01-20T07:19:01;100559.00;;;22.90
12061;BMP180;6091;51.432;6.880;2023-01-20T07:21:28;100560.00;;;23.00
12061;BMP180;6091;51.432;6.880;2023-01-20T07:23:59;100563.00;;;23.20
12061;BMP180;6091;51.432;6.880;2023-01-20T07:26:28;100561.00;;;23.30
12061;BMP180;6091;51.432;6.880;2023-01-20T07:28:57;100578.00;;;23.40
12061;BMP180;6091;51.432;6.880;2023-01-20T07:31:28;100575.00;;;23.50
12061;BMP180;6091;51.432;6.880;2023-01-20T07:33:57;100581.00;;;23.60
12061;BMP180;6091;51.432;6.880;2023-01-20T07:36:24;100592.00;;;23.70
12061;BMP180;6091;51.432;6.880;2023-01-20T07:38:52;100582.00;;;23.80
12061;BMP180;6091;51.432;6.880;2023-01-20T07:41:21;100595.00;;;23.90
12061;BMP180;6091;51.432;6.880;2023-01-20T07:43:50;100599.00;;;24.00
12061;BMP180;6091;51.432;6.880;2023-01-20T07:46:18;100601.00;;;24.00
12061;BMP180;6091;51.432;6.880;2023-01-20T07:48:46;100593.00;;;24.10
12061;BMP180;6091;51.432;6.880;2023-01-20T07:51:15;100608.00;;;24.20
12061;BMP180;6091;51.432;6.880;2023-01-20T07:53:45;100612.00;;;24.30
12061;BMP180;6091;51.432;6.880;2023-01-20T07:56:20;100616.00;;;24.30
12061;BMP180;6091;51.432;6.880;2023-01-20T07:58:48;100625.00;;;24.40
12061;BMP180;6091;51.432;6.880;2023-01-20T08:01:21;100630.00;;;24.40
12061;BMP180;6091;51.432;6.880;2023-01-20T08:03:48;100632.00;;;24.50
12061;BMP180;6091;51.432;6.880;2023-01-20T08:06:19;100627.00;;;24.50
12061;BMP180;6091;51.432;6.880;2023-01-20T08:08:47;100637.00;;;24.60
12061;BMP180;6091;51.432;6.880;2023-01-20T08:11:17;100639.00;;;24.70
12061;BMP180;6091;51.432;6.880;2023-01-20T08:13:44;100635.00;;;24.70
12061;BMP180;6091;51.432;6.880;2023-01-20T08:16:15;100641.00;;;24.80
12061;BMP180;6091;51.432;6.880;2023-01-20T08:18:43;100638.00;;;24.80
12061;BMP180;6091;51.432;6.880;2023-01-20T08:21:29;100645.00;;;24.90
12061;BMP180;6091;51.432;6.880;2023-01-20T08:23:59;100655.00;;;24.90
12061;BMP180;6091;51.432;6.880;2023-01-20T08:26:28;100653.00;;;25.20
12061;BMP180;6091;51.432;6.880;2023-01-20T08:29:06;100652.00;;;25.10
12061;BMP180;6091;51.432;6.880;2023-01-20T08:31:34;100669.00;;;25.10
12061;BMP180;6091;51.432;6.880;2023-01-20T08:34:02;100664.00;;;25.10
12061;BMP180;6091;51.432;6.880;2023-01-20T08:36:32;100668.00;;;25.10
12061;BMP180;6091;51.432;6.880;2023-01-20T08:39:05;100679.00;;;25.40
12061;BMP180;6091;51.432;6.880;2023-01-20T08:41:36;100664.00;;;25.30
12061;BMP180;6091;51.432;6.880;2023-01-20T08:44:06;100664.00;;;25.40
12061;BMP180;6091;51.432;6.880;2023-01-20T08:46:34;100671.00;;;25.30
12061;BMP180;6091;51.432;6.880;2023-01-20T08:49:10;100666.00;;;25.30
12061;BMP180;6091;51.432;6.880;2023-01-20T08:51:38;100676.00;;;25.30
12061;BMP180;6091;51.432;6.880;2023-01-20T08:54:05;100680.00;;;25.30
12061;BMP180;6091;51.432;6.880;2023-01-20T08:56:32;100677.00;;;25.30
12061;BMP180;6091;51.432;6.880;2023-01-20T08:59:02;100671.00;;;25.30
12061;BMP180;6091;51.432;6.880;2023-01-20T09:01:33;100677.00;;;25.30
12061;BMP180;6091;51.432;6.880;2023-01-20T09:04:02;100672.00;;;25.30
12061;BMP180;6091;51.432;6.880;2023-01-20T09:06:43;100678.00;;;25.30
12061;BMP180;6091;51.432;6.880;2023-01-20T09:09:13;100672.00;;;25.30
12061;BMP180;6091;51.432;6.880;2023-01-20T09:11:41;100684.00;;;25.40
12061;BMP180;6091;51.432;6.880;2023-01-20T09:14:10;100688.00;;;25.40
12061;BMP180;6091;51.432;6.880;2023-01-20T09:16:37;100690.00;;;25.40
12061;BMP180;6091;51.432;6.880;2023-01-20T09:19:04;100696.00;;;25.40
12061;BMP180;6091;51.432;6.880;2023-01-20T09:21:32;100691.00;;;25.40
12061;BMP180;6091;51.432;6.880;2023-01-20T09:23:59;100700.00;;;25.70
12061;BMP180;6091;51.432;6.880;2023-01-20T09:26:26;100680.00;;;25.50
12061;BMP180;6091;51.432;6.880;2023-01-20T09:29:02;100696.00;;;25.50
12061;BMP180;6091;51.432;6.880;2023-01-20T09:31:52;100699.00;;;25.70
12061;BMP180;6091;51.432;6.880;2023-01-20T09:34:20;100705.00;;;25.60
12061;BMP180;6091;51.432;6.880;2023-01-20T09:36:56;100706.00;;;25.60
12061;BMP180;6091;51.432;6.880;2023-01-20T09:39:24;100694.00;;;25.60
12061;BMP180;6091;51.432;6.880;2023-01-20T09:42:34;100696.00;;;25.50
12061;BMP180;6091;51.432;6.880;2023-01-20T09:45:42;100703.00;;;25.50
12061;BMP180;6091;51.432;6.880;2023-01-20T09:54:44;100694.00;;;25.50
12061;BMP180;6091;51.432;6.880;2023-01-20T09:57:16;100693.00;;;25.50
12061;BMP180;6091;51.432;6.880;2023-01-20T09:59:54;100705.00;;;25.50
12061;BMP180;6091;51.432;6.880;2023-01-20T10:02:32;100699.00;;;25.50
12061;BMP180;6091;51.432;6.880;2023-01-20T10:05:23;100705.00;;;25.50
12061;BMP180;6091;51.432;6.880;2023-01-20T10:07:55;100706.00;;;25.50
12061;BMP180;6091;51.432;6.880;2023-01-20T10:11:17;100703.00;;;25.50
12061;BMP180;6091;51.432;6.880;2023-01-20T10:13:55;100712.00;;;25.40
12061;BMP180;6091;51.432;6.880;2023-01-20T10:16:43;100721.00;;;25.40
12061;BMP180;6091;51.432;6.880;2023-01-20T10:19:24;100707.00;;;25.40
12061;BMP180;6091;51.432;6.880;2023-01-20T10:22:25;100710.00;;;25.40
12061;BMP180;6091;51.432;6.880;2023-01-20T10:25:19;100712.00;;;25.40
12061;BMP180;6091;51.432;6.880;2023-01-20T10:28:13;100705.00;;;25.40
12061;BMP180;6091;51.432;6.880;2023-01-20T10:30:42;100706.00;;;25.40
12061;BMP180;6091;51.432;6.880;2023-01-20T10:33:36;100703.00;;;25.40
12061;BMP180;6091;51.432;6.880;2023-01-20T10:36:21;100703.00;;;25.40
12061;BMP180;6091;51.432;6.880;2023-01-20T10:39:15;100695.00;;;25.40
12061;BMP180;6091;51.432;6.880;2023-01-20T10:41:51;100699.00;;;25.40
12061;BMP180;6091;51.432;6.880;2023-01-20T10:44:22;100699.00;;;25.40
12061;BMP180;6091;51.432;6.880;2023-01-20T10:55:38;100697.00;;;25.50
12061;BMP180;6091;51.432;6.880;2023-01-20T10:58:32;100700.00;;;25.50
12061;BMP180;6091;51.432;6.880;2023-01-20T11:01:04;100704.00;;;25.50
12061;BMP180;6091;51.432;6.880;2023-01-20T11:03:41;100702.00;;;25.50
12061;BMP180;6091;51.432;6.880;2023-01-20T11:06:24;100709.00;;;25.50
12061;BMP180;6091;51.432;6.880;2023-01-20T11:08:53;100705.00;;;25.50
12061;BMP180;6091;51.432;6.880;2023-01-20T11:11:24;100704.00;;;25.50
12061;BMP180;6091;51.432;6.880;2023-01-20T11:13:52;100703.00;;;25.50
12061;BMP180;6091;51.432;6.880;2023-01-20T11:16:25;100713.00;;;25.60
12061;BMP180;6091;51.432;6.880;2023-01-20T11:19:03;100708.00;;;25.60
12061;BMP180;6091;51.432;6.880;2023-01-20T11:21:33;100709.00;;;25.50
12061;BMP180;6091;51.432;6.880;2023-01-20T11:24:54;100708.00;;;25.50
12061;BMP180;6091;51.432;6.880;2023-01-20T11:27:30;100710.00;;;25.50
12061;BMP180;6091;51.432;6.880;2023-01-20T11:30:05;100703.00;;;25.50
12061;BMP180;6091;51.432;6.880;2023-01-20T11:32:36;100702.00;;;25.50
12061;BMP180;6091;51.432;6.880;2023-01-20T11:35:34;100700.00;;;25.50
12061;BMP180;6091;51.432;6.880;2023-01-20T11:38:22;100697.00;;;25.50
12061;BMP180;6091;51.432;6.880;2023-01-20T11:40:55;100697.00;;;25.50
12061;BMP180;6091;51.432;6.880;2023-01-20T11:43:30;100702.00;;;25.50
12061;BMP180;6091;51.432;6.880;2023-01-20T11:46:20;100705.00;;;25.50
12061;BMP180;6091;51.432;6.880;2023-01-20T11:48:49;100712.00;;;25.50
12061;BMP180;6091;51.432;6.880;2023-01-20T11:51:22;100706.00;;;25.50
12061;BMP180;6091;51.432;6.880;2023-01-20T11:54:10;100704.00;;;25.50
12061;BMP180;6091;51.432;6.880;2023-01-20T11:56:42;100701.00;;;25.50
12061;BMP180;6091;51.432;6.880;2023-01-20T11:59:46;100705.00;;;25.50
12061;BMP180;6091;51.432;6.880;2023-01-20T12:02:23;100704.00;;;25.50
12061;BMP180;6091;51.432;6.880;2023-01-20T12:05:21;100700.00;;;25.50
12061;BMP180;6091;51.432;6.880;2023-01-20T12:07:52;100706.00;;;25.50
12061;BMP180;6091;51.432;6.880;2023-01-20T12:10:26;100702.00;;;25.50
12061;BMP180;6091;51.432;6.880;2023-01-20T12:13:15;100703.00;;;25.50
12061;BMP180;6091;51.432;6.880;2023-01-20T12:15:50;100701.00;;;25.50
12061;BMP180;6091;51.432;6.880;2023-01-20T12:21:35;100705.00;;;25.50
12061;BMP180;6091;51.432;6.880;2023-01-20T12:24:46;100708.00;;;25.50
12061;BMP180;6091;51.432;6.880;2023-01-20T12:27:47;100708.00;;;25.50
12061;BMP180;6091;51.432;6.880;2023-01-20T12:31:00;100706.00;;;25.40
12061;BMP180;6091;51.432;6.880;2023-01-20T12:33:38;100711.00;;;25.50
12061;BMP180;6091;51.432;6.880;2023-01-20T12:48:02;100711.00;;;25.40
12061;BMP180;6091;51.432;6.880;2023-01-20T12:59:35;100723.00;;;25.40
12061;BMP180;6091;51.432;6.880;2023-01-20T13:14:54;100720.00;;;25.30
12061;BMP180;6091;51.432;6.880;2023-01-20T13:20:04;100725.00;;;25.30
12061;BMP180;6091;51.432;6.880;2023-01-20T13:22:37;100723.00;;;25.40
12061;BMP180;6091;51.432;6.880;2023-01-20T13:25:04;100724.00;;;25.30
12061;BMP180;6091;51.432;6.880;2023-01-20T13:27:36;100723.00;;;25.40
12061;BMP180;6091;51.432;6.880;2023-01-20T13:30:07;100729.00;;;25.80
12061;BMP180;6091;51.432;6.880;2023-01-20T13:33:04;100737.00;;;25.80
12061;BMP180;6091;51.432;6.880;2023-01-20T13:35:48;100735.00;;;25.60
12061;BMP180;6091;51.432;6.880;2023-01-20T13:40:55;100728.00;;;25.60
12061;BMP180;6091;51.432;6.880;2023-01-20T13:48:36;100743.00;;;25.60
12061;BMP180;6091;51.432;6.880;2023-01-20T13:56:51;100744.00;;;25.70
12061;BMP180;6091;51.432;6.880;2023-01-20T13:59:18;100757.00;;;25.70
12061;BMP180;6091;51.432;6.880;2023-01-20T14:01:45;100752.00;;;25.60
12061;BMP180;6091;51.432;6.880;2023-01-20T14:04:17;100754.00;;;25.50
12061;BMP180;6091;51.432;6.880;2023-01-20T14:06:50;100755.00;;;25.50
12061;BMP180;6091;51.432;6.880;2023-01-20T14:09:23;100759.00;;;25.50
12061;BMP180;6091;51.432;6.880;2023-01-20T14:11:55;100761.00;;;25.50
12061;BMP180;6091;51.432;6.880;2023-01-20T14:14:25;100768.00;;;25.50
12061;BMP180;6091;51.432;6.880;2023-01-20T14:16:55;100760.00;;;25.50
12061;BMP180;6091;51.432;6.880;2023-01-20T14:19:32;100777.00;;;25.50
12061;BMP180;6091;51.432;6.880;2023-01-20T14:22:18;100773.00;;;25.50
12061;BMP180;6091;51.432;6.880;2023-01-20T14:24:48;100773.00;;;25.60
12061;BMP180;6091;51.432;6.880;2023-01-20T14:27:28;100779.00;;;25.60
12061;BMP180;6091;51.432;6.880;2023-01-20T14:30:22;100787.00;;;25.70
12061;BMP180;6091;51.432;6.880;2023-01-20T14:32:51;100790.00;;;25.70
12061;BMP180;6091;51.432;6.880;2023-01-20T14:35:30;100793.00;;;25.70
12061;BMP180;6091;51.432;6.880;2023-01-20T14:37:59;100795.00;;;25.80
12061;BMP180;6091;51.432;6.880;2023-01-20T14:40:33;100800.00;;;25.80
12061;BMP180;6091;51.432;6.880;2023-01-20T14:43:20;100811.00;;;25.80
12061;BMP180;6091;51.432;6.880;2023-01-20T14:45:50;100808.00;;;25.80
12061;BMP180;6091;51.432;6.880;2023-01-20T14:48:19;100815.00;;;25.80
12061;BMP180;6091;51.432;6.880;2023-01-20T14:51:01;100826.00;;;25.90
12061;BMP180;6091;51.432;6.880;2023-01-20T14:53:30;100825.00;;;25.90
12061;BMP180;6091;51.432;6.880;2023-01-20T14:56:03;100830.00;;;25.90
12061;BMP180;6091;51.432;6.880;2023-01-20T14:58:33;100839.00;;;25.90
12061;BMP180;6091;51.432;6.880;2023-01-20T15:01:05;100833.00;;;25.90
12061;BMP180;6091;51.432;6.880;2023-01-20T15:03:33;100839.00;;;25.90
12061;BMP180;6091;51.432;6.880;2023-01-20T15:06:02;100853.00;;;25.90
12061;BMP180;6091;51.432;6.880;2023-01-20T15:11:28;100854.00;;;25.90
12061;BMP180;6091;51.432;6.880;2023-01-20T15:16:39;100864.00;;;25.90
12061;BMP180;6091;51.432;6.880;2023-01-20T15:21:51;100878.00;;;25.80
12061;BMP180;6091;51.432;6.880;2023-01-20T15:26:58;100868.00;;;25.80
12061;BMP180;6091;51.432;6.880;2023-01-20T15:29:35;100879.00;;;25.80
12061;BMP180;6091;51.432;6.880;2023-01-20T15:32:10;100884.00;;;25.80
12061;BMP180;6091;51.432;6.880;2023-01-20T15:34:37;100881.00;;;25.80
12061;BMP180;6091;51.432;6.880;2023-01-20T15:37:18;100897.00;;;25.80
12061;BMP180;6091;51.432;6.880;2023-01-20T15:39:45;100899.00;;;25.80
12061;BMP180;6091;51.432;6.880;2023-01-20T15:42:13;100896.00;;;25.80
12061;BMP180;6091;51.432;6.880;2023-01-20T15:44:41;100908.00;;;25.80
12061;BMP180;6091;51.432;6.880;2023-01-20T15:47:24;100905.00;;;25.80
12061;BMP180;6091;51.432;6.880;2023-01-20T15:49:54;100918.00;;;25.80
12061;BMP180;6091;51.432;6.880;2023-01-20T15:52:21;100924.00;;;25.80
12061;BMP180;6091;51.432;6.880;2023-01-20T15:54:48;100927.00;;;25.80
12061;BMP180;6091;51.432;6.880;2023-01-20T15:57:16;100934.00;;;25.80
12061;BMP180;6091;51.432;6.880;2023-01-20T15:59:43;100941.00;;;25.80
12061;BMP180;6091;51.432;6.880;2023-01-20T16:02:21;100936.00;;;25.80
12061;BMP180;6091;51.432;6.880;2023-01-20T16:04:49;100938.00;;;25.80
12061;BMP180;6091;51.432;6.880;2023-01-20T16:07:18;100955.00;;;25.80
12061;BMP180;6091;51.432;6.880;2023-01-20T16:09:46;100949.00;;;25.80
12061;BMP180;6091;51.432;6.880;2023-01-20T16:12:16;100953.00;;;25.80
12061;BMP180;6091;51.432;6.880;2023-01-20T16:14:44;100954.00;;;25.80
12061;BMP180;6091;51.432;6.880;2023-01-20T16:17:15;100960.00;;;25.80
12061;BMP180;6091;51.432;6.880;2023-01-20T16:19:42;100961.00;;;25.80
12061;BMP180;6091;51.432;6.880;2023-01-20T16:22:09;100967.00;;;25.70
12061;BMP180;6091;51.432;6.880;2023-01-20T16:24:37;100963.00;;;25.70
12061;BMP180;6091;51.432;6.880;2023-01-20T16:27:20;100980.00;;;25.80
12061;BMP180;6091;51.432;6.880;2023-01-20T16:29:48;100982.00;;;25.70